createdAt,value
2023-08-29T00:01:30.077Z,91.22
2023-08-29T00:03:57.579Z,91.54
2023-08-29T00:06:24.160Z,91.54
2023-08-29T00:08:50.664Z,91.30
2023-08-29T00:11:18.017Z,91.90
2023-08-29T00:13:44.902Z,91.68
2023-08-29T00:16:17.145Z,92.14
2023-08-29T00:18:46.067Z,91.82
2023-08-29T00:21:12.969Z,91.26
2023-08-29T00:23:39.431Z,91.34
2023-08-29T00:26:05.946Z,91.28
2023-08-29T00:28:32.390Z,90.71
2023-08-29T00:30:58.834Z,90.85
2023-08-29T00:33:25.375Z,91.15
2023-08-29T00:35:51.823Z,90.31
2023-08-29T00:38:18.491Z,90.46
2023-08-29T00:40:45.034Z,90.22
2023-08-29T00:43:11.447Z,90.38
2023-08-29T00:45:38.453Z,90.75
2023-08-29T00:48:07.416Z,90.68
2023-08-29T00:50:38.246Z,89.44
2023-08-29T00:53:06.423Z,90.35
2023-08-29T00:55:35.919Z,89.83
2023-08-29T00:58:05.980Z,89.75
2023-08-29T01:00:33.858Z,89.92
2023-08-29T01:03:01.610Z,89.43
2023-08-29T01:05:29.844Z,89.66
2023-08-29T01:07:59.701Z,90.51
2023-08-29T01:10:42.265Z,90.85
2023-08-29T01:13:23.138Z,92.32
2023-08-29T01:15:51.533Z,92.28
2023-08-29T01:18:20.727Z,90.96
2023-08-29T01:20:50.295Z,91.37
2023-08-29T01:23:34.580Z,92.06
2023-08-29T01:26:15.309Z,91.92
2023-08-29T01:28:44.483Z,91.77
2023-08-29T01:31:12.284Z,91.12
2023-08-29T01:33:39.648Z,91.96
2023-08-29T01:36:06.921Z,93.72
2023-08-29T01:38:33.737Z,93.23
2023-08-29T01:41:00.193Z,92.55
2023-08-29T01:43:26.689Z,92.77
2023-08-29T01:45:53.152Z,92.11
2023-08-29T01:48:22.372Z,92.92
2023-08-29T01:50:49.535Z,93.94
2023-08-29T01:53:16.057Z,92.99
2023-08-29T01:55:45.094Z,92.44
2023-08-29T01:58:13.435Z,92.34
2023-08-29T02:00:41.043Z,93.42
2023-08-29T02:03:08.144Z,93.47
2023-08-29T02:05:34.704Z,94.24
2023-08-29T02:08:01.127Z,94.08
2023-08-29T02:10:27.606Z,94.23
2023-08-29T02:12:54.018Z,94.77
2023-08-29T02:15:20.468Z,94.91
2023-08-29T02:17:47.211Z,95.20
2023-08-29T02:20:14.654Z,94.63
2023-08-29T02:22:41.104Z,94.36
2023-08-29T02:25:08.915Z,93.29
2023-08-29T02:27:35.517Z,93.65
2023-08-29T02:30:02.197Z,94.91
2023-08-29T02:32:29.639Z,93.49
2023-08-29T02:34:56.230Z,93.32
2023-08-29T02:37:22.810Z,93.92
2023-08-29T02:39:49.262Z,93.91
2023-08-29T02:42:15.675Z,94.21
2023-08-29T02:44:42.104Z,93.80
2023-08-29T02:47:08.709Z,93.41
2023-08-29T02:49:35.246Z,93.30
2023-08-29T02:52:01.958Z,93.14
2023-08-29T02:54:28.361Z,92.43
2023-08-29T02:56:54.841Z,93.33
2023-08-29T02:59:21.314Z,93.62
2023-08-29T03:01:50.519Z,94.25
2023-08-29T03:04:16.911Z,94.73
2023-08-29T03:06:43.319Z,93.68
2023-08-29T03:09:09.767Z,92.81
2023-08-29T03:11:36.333Z,92.57
2023-08-29T03:14:04.849Z,92.01
2023-08-29T03:16:31.471Z,91.68
2023-08-29T03:18:58.209Z,92.53
2023-08-29T03:21:24.752Z,93.36
2023-08-29T03:23:51.157Z,94.44
2023-08-29T03:26:17.625Z,94.51
2023-08-29T03:28:44.904Z,93.28
2023-08-29T03:31:16.149Z,92.96
2023-08-29T03:33:44.373Z,92.91
2023-08-29T03:36:11.342Z,91.75
2023-08-29T03:38:39.510Z,92.04
2023-08-29T03:41:07.021Z,92.63
2023-08-29T03:43:35.225Z,91.79
2023-08-29T03:46:06.275Z,92.44
2023-08-29T03:48:34.632Z,93.11
2023-08-29T03:51:07.402Z,93.03
2023-08-29T03:53:37.854Z,92.81
2023-08-29T03:56:06.357Z,92.64
2023-08-29T03:58:33.297Z,92.58
2023-08-29T04:01:00.050Z,92.75
2023-08-29T04:03:26.997Z,92.03
2023-08-29T04:05:53.847Z,92.74
2023-08-29T04:08:20.417Z,92.03
2023-08-29T04:10:47.551Z,92.13
2023-08-29T04:13:14.036Z,92.01
2023-08-29T04:15:40.569Z,92.78
2023-08-29T04:18:09.263Z,94.03
2023-08-29T04:20:36.775Z,93.80
2023-08-29T04:23:08.110Z,92.71
2023-08-29T04:25:36.817Z,91.93
2023-08-29T04:28:04.791Z,92.02
2023-08-29T04:30:31.571Z,91.44
2023-08-29T04:32:59.271Z,91.73
2023-08-29T04:35:26.142Z,91.22
2023-08-29T04:37:52.936Z,91.05
2023-08-29T04:40:19.758Z,91.14
2023-08-29T04:42:46.299Z,90.66
2023-08-29T04:45:12.937Z,90.84
2023-08-29T04:47:40.687Z,90.15
2023-08-29T04:50:09.109Z,89.54
2023-08-29T04:52:35.877Z,89.28
2023-08-29T04:55:02.482Z,90.02
2023-08-29T04:57:28.944Z,89.07
2023-08-29T04:59:55.436Z,88.75
2023-08-29T05:02:22.725Z,88.56
2023-08-29T05:04:49.419Z,88.05
2023-08-29T05:07:15.892Z,88.43
2023-08-29T05:09:42.671Z,89.05
2023-08-29T05:12:11.478Z,88.12
2023-08-29T05:14:39.772Z,88.04
2023-08-29T05:17:07.192Z,87.52
2023-08-29T05:19:34.019Z,86.83
2023-08-29T05:22:00.609Z,86.72
2023-08-29T05:24:27.230Z,87.47
2023-08-29T05:26:54.003Z,88.00
2023-08-29T05:29:23.316Z,88.62
2023-08-29T05:31:49.771Z,88.14
2023-08-29T05:34:16.218Z,87.59
2023-08-29T05:36:42.692Z,87.33
2023-08-29T05:39:09.231Z,87.19
2023-08-29T05:41:35.723Z,86.68
2023-08-29T05:44:02.382Z,86.72
2023-08-29T05:46:28.875Z,86.13
2023-08-29T05:48:55.853Z,86.42
2023-08-29T05:51:22.441Z,86.23
2023-08-29T05:53:49.014Z,85.33
2023-08-29T05:56:15.599Z,84.83
2023-08-29T05:58:42.069Z,84.43
2023-08-29T06:01:10.254Z,84.20
2023-08-29T06:03:37.567Z,83.75
2023-08-29T06:06:04.675Z,83.84
2023-08-29T06:08:34.424Z,83.02
2023-08-29T06:11:01.959Z,83.26
2023-08-29T06:13:28.566Z,83.08
2023-08-29T06:15:55.285Z,82.18
2023-08-29T06:18:21.950Z,81.83
2023-08-29T06:20:48.439Z,81.44
2023-08-29T06:23:14.874Z,81.21
2023-08-29T06:25:42.567Z,80.79
2023-08-29T06:28:09.365Z,82.15
2023-08-29T06:30:39.411Z,81.17
2023-08-29T06:33:08.073Z,81.09
2023-08-29T06:35:40.876Z,80.04
2023-08-29T06:38:08.548Z,79.73
2023-08-29T06:40:36.153Z,79.33
2023-08-29T06:43:06.085Z,79.65
2023-08-29T06:45:33.099Z,80.70
2023-08-29T06:48:31.713Z,78.63
2023-08-29T06:51:02.224Z,79.15
2023-08-29T06:53:28.760Z,78.05
2023-08-29T06:55:55.331Z,77.74
2023-08-29T06:58:21.787Z,76.37
2023-08-29T07:00:48.447Z,76.04
2023-08-29T07:03:18.357Z,75.34
2023-08-29T07:05:48.307Z,74.82
2023-08-29T07:08:17.437Z,74.37
2023-08-29T07:10:43.894Z,73.82
2023-08-29T07:13:10.407Z,74.70
2023-08-29T07:15:36.850Z,74.64
2023-08-29T07:18:07.136Z,73.70
2023-08-29T07:20:34.759Z,74.21
2023-08-29T07:23:01.371Z,74.52
2023-08-29T07:25:43.444Z,74.17
2023-08-29T07:28:13.073Z,74.05
2023-08-29T07:30:43.312Z,74.01
2023-08-29T07:33:11.886Z,73.90
2023-08-29T07:35:41.819Z,74.14
2023-08-29T07:38:09.158Z,73.65
2023-08-29T07:40:36.080Z,73.21
2023-08-29T07:46:13.960Z,73.38
2023-08-29T07:48:41.250Z,72.36
2023-08-29T07:51:08.125Z,72.59
2023-08-29T07:53:34.574Z,72.68
2023-08-29T07:56:01.009Z,72.77
2023-08-29T07:58:27.614Z,72.04
2023-08-29T08:00:54.085Z,71.83
2023-08-29T08:03:20.503Z,71.83
2023-08-29T08:05:46.962Z,71.03
2023-08-29T08:08:13.386Z,71.13
2023-08-29T08:10:39.907Z,70.87
2023-08-29T08:13:06.739Z,70.58
2023-08-29T08:15:33.181Z,69.94
2023-08-29T08:17:59.643Z,69.69
2023-08-29T08:20:26.110Z,68.96
2023-08-29T08:22:52.561Z,67.62
2023-08-29T08:25:18.983Z,69.98
2023-08-29T08:27:45.496Z,68.09
2023-08-29T08:30:12.233Z,66.32
2023-08-29T08:32:39.215Z,65.47
2023-08-29T08:35:07.747Z,64.91
2023-08-29T08:37:35.290Z,63.58
2023-08-29T08:40:02.206Z,63.64
2023-08-29T08:42:30.854Z,63.58
2023-08-29T08:44:57.792Z,61.77
2023-08-29T08:47:25.113Z,61.17
2023-08-29T08:49:52.051Z,59.70
2023-08-29T08:52:18.812Z,59.15
2023-08-29T08:54:45.519Z,59.00
2023-08-29T08:57:17.702Z,57.84
2023-08-29T08:59:44.516Z,57.93
2023-08-29T09:02:15.615Z,56.71
2023-08-29T09:04:42.118Z,58.21
2023-08-29T09:07:08.658Z,58.24
2023-08-29T09:09:35.196Z,56.79
2023-08-29T09:12:01.714Z,55.80
2023-08-29T09:14:28.428Z,56.76
2023-08-29T09:16:59.059Z,56.66
2023-08-29T09:19:26.559Z,55.17
2023-08-29T09:21:53.340Z,54.58
2023-08-29T09:24:29.352Z,55.11
2023-08-29T09:26:55.835Z,57.21
2023-08-29T09:29:22.554Z,58.81
2023-08-29T09:31:49.494Z,59.05
2023-08-29T09:34:24.995Z,57.99
2023-08-29T09:36:51.552Z,58.18
2023-08-29T09:39:18.333Z,59.25
2023-08-29T09:41:57.843Z,59.12
2023-08-29T09:44:24.238Z,59.72
2023-08-29T09:46:50.642Z,60.44
2023-08-29T09:49:17.304Z,59.06
2023-08-29T09:51:45.040Z,60.21
2023-08-29T09:54:13.824Z,58.58
2023-08-29T09:56:43.201Z,59.21
2023-08-29T09:59:13.983Z,57.06
2023-08-29T10:01:45.438Z,58.64
2023-08-29T10:04:15.440Z,59.35
2023-08-29T10:06:42.329Z,58.88
2023-08-29T10:09:09.112Z,57.98
2023-08-29T10:11:48.431Z,57.61
2023-08-29T10:14:21.813Z,58.49
2023-08-29T10:16:51.636Z,59.47
2023-08-29T10:19:19.900Z,60.26
2023-08-29T10:21:49.049Z,60.26
2023-08-29T10:24:16.144Z,60.70
2023-08-29T10:26:45.375Z,62.25
2023-08-29T10:29:11.892Z,62.49
2023-08-29T10:31:39.516Z,61.44
2023-08-29T10:34:06.085Z,62.44
2023-08-29T10:36:33.192Z,62.15
2023-08-29T10:39:00.368Z,61.67
2023-08-29T10:41:27.117Z,60.71
2023-08-29T10:44:25.717Z,63.46
2023-08-29T10:46:55.583Z,63.36
2023-08-29T10:49:23.103Z,63.89
2023-08-29T10:52:11.598Z,62.86
2023-08-29T10:54:38.622Z,63.01
2023-08-29T10:57:27.869Z,63.92
2023-08-29T10:59:54.987Z,64.85
2023-08-29T11:02:30.200Z,65.22
2023-08-29T11:05:05.697Z,64.77
2023-08-29T11:07:36.455Z,64.68
2023-08-29T11:10:13.392Z,65.32
2023-08-29T11:13:02.553Z,65.75
2023-08-29T11:15:50.950Z,66.25
2023-08-29T11:18:23.216Z,68.11
2023-08-29T11:20:49.670Z,67.12
2023-08-29T11:23:16.134Z,68.37
2023-08-29T11:25:43.429Z,68.10
2023-08-29T11:28:09.917Z,69.63
2023-08-29T11:30:44.348Z,69.25
2023-08-29T11:33:11.816Z,68.51
2023-08-29T11:35:38.383Z,67.49
2023-08-29T11:38:07.302Z,68.29
2023-08-29T11:40:45.571Z,68.62
2023-08-29T11:43:54.179Z,67.75
2023-08-29T11:46:09.956Z,68.68
2023-08-29T11:48:39.638Z,66.02
2023-08-29T11:51:09.691Z,65.91
2023-08-29T11:53:37.813Z,65.12
2023-08-29T11:56:06.497Z,64.79
2023-08-29T11:58:38.622Z,62.20
2023-08-29T12:01:05.963Z,62.00
2023-08-29T12:03:39.363Z,59.71
2023-08-29T12:06:13.478Z,58.62
2023-08-29T12:08:48.702Z,59.52
2023-08-29T12:11:16.656Z,56.79
2023-08-29T12:14:08.421Z,57.30
2023-08-29T12:16:34.963Z,58.49
2023-08-29T12:19:06.869Z,58.46
2023-08-29T12:21:33.390Z,56.79
2023-08-29T12:24:11.516Z,57.66
2023-08-29T12:26:38.041Z,57.09
2023-08-29T12:29:04.624Z,57.35
2023-08-29T12:31:31.108Z,57.06
2023-08-29T12:33:57.522Z,59.62
2023-08-29T12:36:24.007Z,57.64
2023-08-29T12:38:50.464Z,55.63
2023-08-29T12:41:18.202Z,55.95
2023-08-29T12:43:44.640Z,55.96
2023-08-29T12:46:11.089Z,56.62
2023-08-29T12:48:37.888Z,58.50
2023-08-29T12:51:04.579Z,57.31
2023-08-29T12:53:31.284Z,55.08
2023-08-29T12:55:58.300Z,55.36
2023-08-29T12:58:24.779Z,54.78
2023-08-29T13:00:51.323Z,54.33
2023-08-29T13:03:17.911Z,49.83
2023-08-29T13:05:44.407Z,43.94
2023-08-29T13:08:10.979Z,40.79
2023-08-29T13:10:40.394Z,42.53
2023-08-29T13:13:07.035Z,45.79
2023-08-29T13:15:48.517Z,48.85
2023-08-29T13:18:17.245Z,51.55
2023-08-29T13:20:44.626Z,51.47
2023-08-29T13:23:11.221Z,53.95
2023-08-29T13:25:37.724Z,55.45
2023-08-29T13:28:05.478Z,57.21
2023-08-29T13:30:33.912Z,57.52
2023-08-29T13:33:00.486Z,59.02
2023-08-29T13:35:27.061Z,59.00
2023-08-29T13:37:53.536Z,59.37
2023-08-29T13:40:21.675Z,60.13
2023-08-29T13:42:48.306Z,60.64
2023-08-29T13:45:14.863Z,60.85
2023-08-29T13:47:41.408Z,61.36
2023-08-29T13:50:08.644Z,62.38
2023-08-29T13:52:35.155Z,62.21
2023-08-29T13:55:01.714Z,63.59
2023-08-29T13:57:28.198Z,64.87
2023-08-29T13:59:54.688Z,64.74
2023-08-29T14:02:21.177Z,65.53
2023-08-29T14:04:47.643Z,66.10
2023-08-29T14:07:17.648Z,66.97
2023-08-29T14:09:44.455Z,68.15
2023-08-29T14:12:10.945Z,68.98
2023-08-29T14:14:37.389Z,69.64
2023-08-29T14:17:04.086Z,70.10
2023-08-29T14:19:31.377Z,70.55
2023-08-29T14:21:57.842Z,70.44
2023-08-29T14:24:24.441Z,69.41
2023-08-29T14:26:50.994Z,69.80
2023-08-29T14:29:17.405Z,69.94
2023-08-29T14:31:44.092Z,70.95
2023-08-29T14:34:10.688Z,71.88
2023-08-29T14:36:37.126Z,72.05
2023-08-29T14:39:03.799Z,73.18
2023-08-29T14:41:30.829Z,73.46
2023-08-29T14:43:57.375Z,74.97
2023-08-29T14:46:24.097Z,74.70
2023-08-29T14:48:50.581Z,74.77
2023-08-29T14:51:17.156Z,73.54
2023-08-29T14:53:43.686Z,72.71
2023-08-29T14:56:10.178Z,73.11
2023-08-29T14:58:36.793Z,71.59
2023-08-29T15:01:03.428Z,70.93
2023-08-29T15:03:30.124Z,71.82
2023-08-29T15:05:58.163Z,71.40
2023-08-29T15:08:26.765Z,71.83
2023-08-29T15:10:54.435Z,72.07
2023-08-29T15:13:22.284Z,72.23
2023-08-29T15:15:48.849Z,72.61
2023-08-29T15:18:16.500Z,72.18
2023-08-29T15:21:23.824Z,72.54
2023-08-29T15:23:54.605Z,71.70
2023-08-29T15:26:21.052Z,71.72
2023-08-29T15:28:47.460Z,70.89
2023-08-29T15:31:14.352Z,70.59
2023-08-29T15:33:40.776Z,71.33
2023-08-29T15:36:07.254Z,71.19
2023-08-29T15:38:33.717Z,71.46
2023-08-29T15:41:00.334Z,72.03
2023-08-29T15:43:26.763Z,72.78
2023-08-29T15:45:53.664Z,72.45
2023-08-29T15:48:20.218Z,71.92
2023-08-29T15:50:47.077Z,71.91
2023-08-29T15:53:14.352Z,71.37
2023-08-29T15:55:41.998Z,72.52
2023-08-29T15:58:09.819Z,71.67
2023-08-29T16:00:37.932Z,71.84
2023-08-29T16:03:04.845Z,71.94
2023-08-29T16:05:31.366Z,72.22
2023-08-29T16:07:57.825Z,72.07
2023-08-29T16:10:24.392Z,72.15
2023-08-29T16:12:50.917Z,71.68
2023-08-29T16:15:17.761Z,71.39
2023-08-29T16:17:44.656Z,71.00
2023-08-29T16:20:11.742Z,70.98
2023-08-29T16:22:38.833Z,71.13
2023-08-29T16:25:08.704Z,70.58
2023-08-29T16:27:38.862Z,70.42
2023-08-29T16:30:08.276Z,71.52
2023-08-29T16:32:35.801Z,71.28
2023-08-29T16:35:02.917Z,71.29
2023-08-29T16:37:29.749Z,71.83
2023-08-29T16:39:56.402Z,69.84
2023-08-29T16:42:23.839Z,69.31
2023-08-29T16:44:51.422Z,69.18
2023-08-29T16:47:17.928Z,68.34
2023-08-29T16:49:44.491Z,68.41
2023-08-29T16:52:10.949Z,69.46
2023-08-29T16:54:37.394Z,69.21
2023-08-29T16:57:04.454Z,70.01
2023-08-29T16:59:32.446Z,70.47
2023-08-29T17:01:59.310Z,70.36
2023-08-29T17:04:26.103Z,70.07
2023-08-29T17:06:52.599Z,68.86
2023-08-29T17:09:19.034Z,68.97
2023-08-29T17:11:45.794Z,68.60
2023-08-29T17:14:12.251Z,68.83
2023-08-29T17:16:38.729Z,68.50
2023-08-29T17:19:05.176Z,69.36
2023-08-29T17:21:31.685Z,69.87
2023-08-29T17:23:58.127Z,70.73
2023-08-29T17:26:24.584Z,70.25
2023-08-29T17:28:51.130Z,70.27
2023-08-29T17:31:18.173Z,70.02
2023-08-29T17:33:44.636Z,69.57
2023-08-29T17:36:11.093Z,70.43
2023-08-29T17:38:37.659Z,70.20
2023-08-29T17:41:04.278Z,71.75
2023-08-29T17:43:30.739Z,73.04
2023-08-29T17:45:58.101Z,73.69
2023-08-29T17:48:27.208Z,74.92
2023-08-29T17:50:59.271Z,75.92
2023-08-29T17:53:27.041Z,75.37
2023-08-29T17:55:54.960Z,76.06
2023-08-29T17:58:25.095Z,76.85
2023-08-29T18:00:53.144Z,77.75
2023-08-29T18:03:19.722Z,78.66
2023-08-29T18:05:50.933Z,78.96
2023-08-29T18:08:18.306Z,78.61
2023-08-29T18:10:45.756Z,78.30
2023-08-29T18:13:13.696Z,78.28
2023-08-29T18:15:41.343Z,78.33
2023-08-29T18:18:29.125Z,78.34
2023-08-29T18:20:57.813Z,78.71
2023-08-29T18:23:25.449Z,78.13
2023-08-29T18:25:53.487Z,78.52
2023-08-29T18:28:19.990Z,78.96
2023-08-29T18:30:46.461Z,78.25
2023-08-29T18:33:13.067Z,78.03
2023-08-29T18:35:41.101Z,80.00
2023-08-29T18:38:08.325Z,82.34
2023-08-29T18:40:35.229Z,82.86
2023-08-29T18:43:03.644Z,83.21
2023-08-29T18:45:30.471Z,83.37
2023-08-29T18:48:00.280Z,84.70
2023-08-29T18:52:54.907Z,84.96
2023-08-29T18:55:21.497Z,85.01
2023-08-29T18:57:47.943Z,84.88
2023-08-29T19:00:15.561Z,84.13
2023-08-29T19:02:43.693Z,84.08
2023-08-29T19:05:11.735Z,83.22
2023-08-29T19:07:39.230Z,84.60
2023-08-29T19:12:34.751Z,85.91
2023-08-29T19:15:03.919Z,84.88
2023-08-29T19:17:32.836Z,84.78
2023-08-29T19:19:59.293Z,85.44
2023-08-29T19:22:25.761Z,86.04
2023-08-29T19:24:52.272Z,85.98
2023-08-29T19:27:23.849Z,86.51
2023-08-29T19:29:53.604Z,87.54
2023-08-29T19:32:20.251Z,90.48
2023-08-29T19:34:47.340Z,89.99
2023-08-29T19:37:14.088Z,89.63
2023-08-29T19:39:40.612Z,89.42
2023-08-29T19:42:07.277Z,89.69
2023-08-29T19:44:33.773Z,92.24
2023-08-29T19:47:02.749Z,90.88
2023-08-29T19:49:38.036Z,90.90
2023-08-29T19:52:05.962Z,90.73
2023-08-29T19:54:32.508Z,90.80
2023-08-29T19:56:59.241Z,90.43
2023-08-29T19:59:25.732Z,90.03
2023-08-29T20:01:52.382Z,90.16
2023-08-29T20:04:18.829Z,90.85
2023-08-29T20:06:45.519Z,92.27
2023-08-29T20:09:12.613Z,93.46
2023-08-29T20:11:39.428Z,94.53
2023-08-29T20:14:06.023Z,92.74
2023-08-29T20:16:33.112Z,92.91
2023-08-29T20:18:59.652Z,93.56
2023-08-29T20:22:27.623Z,93.23
2023-08-29T20:24:27.212Z,93.81
2023-08-29T20:27:31.580Z,93.02
2023-08-29T20:29:58.861Z,93.01
2023-08-29T20:32:32.265Z,92.54
2023-08-29T20:34:58.713Z,92.64
2023-08-29T20:37:25.145Z,92.81
2023-08-29T20:39:52.151Z,94.16
2023-08-29T20:42:18.662Z,94.04
2023-08-29T20:44:45.331Z,94.48
2023-08-29T20:47:13.131Z,94.88
2023-08-29T20:49:39.798Z,94.26
2023-08-29T20:52:11.478Z,93.65
2023-08-29T20:54:38.670Z,93.84
2023-08-29T20:57:05.652Z,94.78
2023-08-29T20:59:32.100Z,94.99
2023-08-29T21:01:58.891Z,94.92
2023-08-29T21:04:26.471Z,94.54
2023-08-29T21:06:52.932Z,94.15
2023-08-29T21:09:20.749Z,94.39
2023-08-29T21:11:50.511Z,94.63
2023-08-29T21:14:17.183Z,94.76
2023-08-29T21:16:43.704Z,95.63
2023-08-29T21:19:10.180Z,94.59
2023-08-29T21:21:36.602Z,94.39
2023-08-29T21:24:03.069Z,95.07
2023-08-29T21:26:29.596Z,94.94
2023-08-29T21:28:56.051Z,95.33
2023-08-29T21:31:22.603Z,95.71
2023-08-29T21:33:49.105Z,96.40
2023-08-29T21:36:15.554Z,96.93
2023-08-29T21:38:43.890Z,96.46
2023-08-29T21:41:10.447Z,97.15
2023-08-29T21:43:36.982Z,97.57
2023-08-29T21:46:07.317Z,97.33
2023-08-29T21:48:33.931Z,98.24
2023-08-29T21:51:02.323Z,98.33
2023-08-29T21:53:28.852Z,99.38
2023-08-29T21:55:55.273Z,98.78
2023-08-29T21:58:21.812Z,98.92
2023-08-29T22:00:48.199Z,98.74
2023-08-29T22:03:14.959Z,97.81
2023-08-29T22:05:41.581Z,97.13
2023-08-29T22:08:08.194Z,96.26
2023-08-29T22:10:35.323Z,96.38
2023-08-29T22:13:02.225Z,96.55
2023-08-29T22:15:28.668Z,96.85
2023-08-29T22:17:55.414Z,97.27
2023-08-29T22:20:21.954Z,96.64
2023-08-29T22:22:51.260Z,96.49
2023-08-29T22:25:18.303Z,96.36
2023-08-29T22:27:44.689Z,96.60
2023-08-29T22:30:11.646Z,95.99
2023-08-29T22:32:38.865Z,96.93
2023-08-29T22:35:05.776Z,97.23
2023-08-29T22:37:32.344Z,97.23
2023-08-29T22:39:59.127Z,96.66
2023-08-29T22:42:25.654Z,96.92
2023-08-29T22:44:52.252Z,96.59
2023-08-29T22:47:19.862Z,97.09
2023-08-29T22:49:46.714Z,96.66
2023-08-29T22:52:13.152Z,96.23
2023-08-29T22:54:39.569Z,96.95
2023-08-29T22:57:06.336Z,97.02
2023-08-29T22:59:33.052Z,96.77
2023-08-29T23:02:00.260Z,96.50
2023-08-29T23:04:30.138Z,97.33
2023-08-29T23:07:04.169Z,96.70
2023-08-29T23:09:34.450Z,97.80
2023-08-29T23:12:04.786Z,96.65
2023-08-29T23:14:31.289Z,97.32
2023-08-29T23:16:58.095Z,97.36
2023-08-29T23:19:25.046Z,97.26
2023-08-29T23:21:52.621Z,97.01
2023-08-29T23:24:19.453Z,97.71
2023-08-29T23:26:46.100Z,97.67
2023-08-29T23:29:12.724Z,97.49
2023-08-29T23:31:40.844Z,97.83
2023-08-29T23:34:07.565Z,97.62
2023-08-29T23:36:34.843Z,98.24
2023-08-29T23:39:01.994Z,97.72
2023-08-29T23:41:28.708Z,97.44
2023-08-29T23:43:55.462Z,96.71
2023-08-29T23:46:22.219Z,97.40
2023-08-29T23:48:48.806Z,96.54
2023-08-29T23:51:15.401Z,97.43
2023-08-29T23:53:41.897Z,97.42
2023-08-29T23:56:08.453Z,97.94
2023-08-29T23:58:34.872Z,97.74
